x

Buoy A01 - Mass. Bay/stellwagen (44029) Wave Buoy

8:04 - Fri 26th Aug 2016 All times are EDT. -4 hours from GMT.

  • Sig Wave height 2.0ft
  • Peak Period 8s
  • Wind
    9mph
  • Sea Temp 66°f
  • Ar Temp 69°f
  • Sea Pressure 1013.8mb
  • Buoy A01 - Mass. Bay/stellwagen
  • Buoy A01 - Mass. Bay/stellwagen

More Historic Weather Station data

Upgrade to MSW Pro to gain access to the past 30 days of data for over 8000 Wavebouys and Weather Stations around the globe.

Join Pro

Comparision Forecast

View Surf forecast
   
Sex 08/26 8:04 2ft 8s 9
mph
1013.8mb 66f 69f
7:04 2.5ft 4s 9
mph
1013.8mb 66f 69f
6:04 2.5ft 3s 9 11 mph 1013.7mb 66f 69f
5:04 2.5ft 4s 9 11 mph 1013.6mb 66f 69f
4:04 2ft 4s 9 11 mph 1013.7mb 66f 69f
3:04 2ft 9s 9 11 mph 1013.8mb 66f 69f
2:04 1.3ft 9s 9 11 mph 1014.3mb 66f 69f
1:04 1.6ft 8s 11 13 mph 1014.5mb 66f 69f
12:04 3ft 4s 11 13 mph 1014.8mb 66f 70f
Qui 08/25 11:04 3ft 4s 13 16 mph 1015.1mb 66f 70f
10:04 3ft 4s 13 16 mph 1015mb 66f 70f
9:04 3.5ft 4s 16 18 mph 1015.1mb 66f 70f
8:04 3ft 5s 13 16 mph 1014.8mb 66f 71f
7:04 3.5ft 5s 16 18 mph 1014.5mb 67f 72f
6:04 2.5ft 5s 13
mph
1014.4mb 67f 71f
5:04 2.5ft 5s 13 16 mph 1014.4mb 67f 72f
4:04 1.6ft 10s 16
mph
1014.8mb 67f 73f
3:04 1.3ft 10s 11
mph
1015.5mb 67f 72f
2:04 1ft 10s 11
mph
1016.2mb 67f 72f
1:04  -   -  9 11 mph 1016.9mb 67f 71f
12:04 1.3ft 10s 11
mph
1017.3mb 66f 70f
11:04 1.3ft 10s 13 16 mph 1017.9mb 66f 69f
10:04 2.5ft 3s 13 16 mph 1018.4mb 66f 69f
9:04 2.5ft 10s 13
mph
1018.7mb 65f 68f
8:04 1.3ft 4s 13 16 mph 1018.7mb 65f 68f
7:04 1.6ft 9s 13 16 mph 1018.9mb 65f 67f
6:04 2.5ft 4s 13
mph
1018.7mb 65f 68f
5:04 1.6ft 3s 13 16 mph 1018.4mb 65f 67f
4:04 1.6ft 3s 13 16 mph 1018.7mb 65f 67f
3:04 1.3ft 3s 13
mph
1018.6mb 65f 68f
2:04 1ft 11s 13 16 mph 1019.4mb 66f 68f
1:04 1ft 8s 13
mph
1020.1mb 66f 69f
12:04 1ft 3s 11 13 mph 1020.2mb 66f 69f
Qua 08/24 11:04 1.3ft 3s 11 13 mph 1020.4mb 66f 70f
10:04 1.3ft 3s 11 13 mph 1020.6mb 66f 70f
9:04 2ft 3s 11 13 mph 1020.8mb 67f 71f
8:04 1.3ft 11s 11
mph
1020.3mb 67f 72f
7:04 1.3ft 3s 9 11 mph 1019.9mb 67f 71f
6:04 1.3ft 3s 11 13 mph 1019.8mb 67f 71f
5:04 1.6ft 3s 13 16 mph 1020.2mb 67f 72f
4:04 1ft 8s 13 16 mph 1020.5mb 68f 72f
3:04 1ft 8s 11 13 mph 1021.4mb 68f 71f
2:04 1ft 8s 7 9 mph 1021.9mb 68f 71f
1:04 1ft 8s 4
mph
1022.4mb 67f 71f
12:04 1ft 8s 9
mph
1022.8mb 66f 69f
11:04 1ft 8s 7
mph
1023.5mb 65f 68f
10:04 1ft 8s 7 9 mph 1023.7mb 65f 67f
9:04 1.3ft 3s 9
mph
1024.1mb 65f 67f
8:04 2.5ft 3s 9 11 mph 1023.8mb 65f 66f
7:04 2.5ft 3s 11 13 mph 1023.3mb 66f 66f
6:04 2ft 3s 9 11 mph 1023.1mb 66f 66f
5:04 2ft 3s 11 13 mph 1022.8mb 66f 66f
4:04 2ft 3s 11 13 mph 1022.7mb 65f 66f
3:04 1.6ft 3s 11 13 mph 1022.9mb 65f 66f
2:04 1.6ft 8s 11
mph
1023.2mb 66f 67f
1:04 1.6ft 9s 9
mph
1023.6mb 66f 67f
12:04 1.6ft 9s 9
mph
1023.5mb 66f 68f
Ter 08/23 11:04 1.3ft 9s 9 11 mph 1023.2mb 66f 68f
10:04 1.3ft 9s 11 13 mph 1023.1mb 66f 70f
9:04 1.3ft 9s 9
mph
1022.7mb 66f 68f
8:04 1ft 10s 9 11 mph 1022.2mb 66f 68f
7:04 2ft 3s 11
mph
1022.1mb 66f 69f
6:04 1.6ft 8s 11 13 mph 1022.2mb 66f 70f
5:04  -   -  11 16 mph 1022.5mb 66f 69f
4:04 1ft 10s 9 11 mph 1022.6mb 66f 69f
3:04 1.3ft 9s 4
mph
1023mb 66f 71f
2:04 1.3ft 9s 7 9 mph 1023.6mb 66f 68f
1:04 1.3ft 8s 9
mph
1023.9mb 66f 67f
12:04 1.3ft 9s 11
mph
1024.3mb 65f 68f
11:04 1.3ft 10s 9 11 mph 1024.8mb 65f 67f
10:04 1.3ft 9s 7 9 mph 1024.7mb 64f 65f
9:04 1.3ft 10s 9 13 mph 1024.4mb 65f 65f
8:04 1.3ft 10s 13 18 mph 1023.9mb 65f 64f
7:04 1.3ft 10s 11 16 mph 1023.5mb 65f 63f
6:04 1.3ft 8s 13 16 mph 1022.6mb 65f 63f
5:04 1.3ft 8s 13 16 mph 1021.8mb 65f 62f
4:04 1.6ft 9s 13 16 mph 1021.6mb 65f 62f
3:04 1.6ft 4s 16 18 mph 1021.4mb 65f 63f
2:04 1.6ft 4s 9 11 mph 1021.2mb 65f 63f
1:04 1.6ft 5s 9 11 mph 1020.8mb 65f 64f
12:04 2ft 5s 13 16 mph 1020.4mb 65f 65f
Seg 08/22 11:04 1.6ft 9s 11
mph
1019.8mb 65f 65f
10:04 1.3ft 8s 13 16 mph 1019mb 62f 64f
9:04 1.6ft 3s 16 20 mph 1018.3mb 61f 66f
8:04 1.6ft 3s 20 25 mph 1017mb 61f 67f
7:04 2ft 3s 18 22 mph 1015.7mb 62f 67f
6:04 2ft 3s 20 22 mph 1014.6mb 64f 69f
5:04 1.6ft 3s 18 22 mph 1013.3mb 65f 69f
4:04 1.6ft 3s 20 25 mph 1011.9mb 66f 70f
3:04 1.6ft 3s 16 22 mph 1011.1mb 66f 71f
2:04 2ft 3s 16 20 mph 1010.9mb 66f 71f